sensor_id;sensor_type;location;lat;lon;timestamp;temperature;humidity
7143;DHT22;3613;48.902;9.204;2023-03-14T00:01:13;9.60;99.90
7143;DHT22;3613;48.902;9.204;2023-03-14T00:03:39;9.60;99.90
7143;DHT22;3613;48.902;9.204;2023-03-14T00:06:11;9.60;99.90
7143;DHT22;3613;48.902;9.204;2023-03-14T00:08:39;9.60;99.90
7143;DHT22;3613;48.902;9.204;2023-03-14T00:11:11;9.60;99.90
7143;DHT22;3613;48.902;9.204;2023-03-14T00:13:37;9.60;99.90
7143;DHT22;3613;48.902;9.204;2023-03-14T00:16:08;9.60;99.90
7143;DHT22;3613;48.902;9.204;2023-03-14T00:18:34;9.60;99.90
7143;DHT22;3613;48.902;9.204;2023-03-14T00:21:01;9.70;99.90
7143;DHT22;3613;48.902;9.204;2023-03-14T00:23:32;9.60;99.90
7143;DHT22;3613;48.902;9.204;2023-03-14T00:26:03;9.60;99.90
7143;DHT22;3613;48.902;9.204;2023-03-14T00:28:29;9.60;99.90
7143;DHT22;3613;48.902;9.204;2023-03-14T00:30:55;9.60;99.90
7143;DHT22;3613;48.902;9.204;2023-03-14T00:33:30;9.70;99.90
7143;DHT22;3613;48.902;9.204;2023-03-14T00:36:11;9.60;99.90
7143;DHT22;3613;48.902;9.204;2023-03-14T00:38:42;9.60;99.90
7143;DHT22;3613;48.902;9.204;2023-03-14T00:41:10;9.70;99.90
7143;DHT22;3613;48.902;9.204;2023-03-14T00:43:36;9.70;99.90
7143;DHT22;3613;48.902;9.204;2023-03-14T00:46:05;9.70;99.90
7143;DHT22;3613;48.902;9.204;2023-03-14T00:48:32;9.70;99.90
7143;DHT22;3613;48.902;9.204;2023-03-14T00:50:57;9.70;99.90
7143;DHT22;3613;48.902;9.204;2023-03-14T00:53:29;9.70;99.90
7143;DHT22;3613;48.902;9.204;2023-03-14T00:55:54;9.70;99.90
7143;DHT22;3613;48.902;9.204;2023-03-14T00:58:20;9.70;99.90
7143;DHT22;3613;48.902;9.204;2023-03-14T01:00:48;9.70;99.90
7143;DHT22;3613;48.902;9.204;2023-03-14T01:03:14;9.70;99.90
7143;DHT22;3613;48.902;9.204;2023-03-14T01:05:40;9.80;99.90
7143;DHT22;3613;48.902;9.204;2023-03-14T01:08:12;9.60;99.90
7143;DHT22;3613;48.902;9.204;2023-03-14T01:10:39;9.60;99.90
7143;DHT22;3613;48.902;9.204;2023-03-14T01:13:09;9.60;99.90
7143;DHT22;3613;48.902;9.204;2023-03-14T01:15:35;9.60;99.90
7143;DHT22;3613;48.902;9.204;2023-03-14T01:18:05;9.60;99.90
7143;DHT22;3613;48.902;9.204;2023-03-14T01:20:37;9.60;99.90
7143;DHT22;3613;48.902;9.204;2023-03-14T01:23:02;9.70;99.90
7143;DHT22;3613;48.902;9.204;2023-03-14T01:25:28;9.70;99.90
7143;DHT22;3613;48.902;9.204;2023-03-14T01:27:56;9.70;99.90
7143;DHT22;3613;48.902;9.204;2023-03-14T01:30:21;9.70;99.90
7143;DHT22;3613;48.902;9.204;2023-03-14T01:32:47;9.70;99.90
7143;DHT22;3613;48.902;9.204;2023-03-14T01:35:12;9.80;99.90
7143;DHT22;3613;48.902;9.204;2023-03-14T01:37:38;9.70;99.90
7143;DHT22;3613;48.902;9.204;2023-03-14T01:40:04;9.70;99.90
7143;DHT22;3613;48.902;9.204;2023-03-14T01:42:31;9.70;99.90
7143;DHT22;3613;48.902;9.204;2023-03-14T01:45:00;9.60;99.90
7143;DHT22;3613;48.902;9.204;2023-03-14T01:47:32;9.60;99.90
7143;DHT22;3613;48.902;9.204;2023-03-14T01:50:09;10.90;99.90
7143;DHT22;3613;48.902;9.204;2023-03-14T01:52:42;9.60;99.90
7143;DHT22;3613;48.902;9.204;2023-03-14T01:55:20;9.70;99.90
7143;DHT22;3613;48.902;9.204;2023-03-14T01:58:03;9.60;99.90
7143;DHT22;3613;48.902;9.204;2023-03-14T02:00:31;9.60;99.90
7143;DHT22;3613;48.902;9.204;2023-03-14T02:03:02;9.60;99.90
7143;DHT22;3613;48.902;9.204;2023-03-14T02:05:38;9.50;99.90
7143;DHT22;3613;48.902;9.204;2023-03-14T02:08:09;9.50;99.90
7143;DHT22;3613;48.902;9.204;2023-03-14T02:10:50;9.50;99.90
7143;DHT22;3613;48.902;9.204;2023-03-14T02:13:21;9.60;99.90
7143;DHT22;3613;48.902;9.204;2023-03-14T02:15:47;9.60;99.90
7143;DHT22;3613;48.902;9.204;2023-03-14T02:18:14;9.60;99.90
7143;DHT22;3613;48.902;9.204;2023-03-14T02:21:17;9.60;99.90
7143;DHT22;3613;48.902;9.204;2023-03-14T02:26:40;9.60;99.90
7143;DHT22;3613;48.902;9.204;2023-03-14T02:29:07;9.60;99.90
7143;DHT22;3613;48.902;9.204;2023-03-14T02:31:33;9.60;99.90
7143;DHT22;3613;48.902;9.204;2023-03-14T02:34:04;9.70;99.90
7143;DHT22;3613;48.902;9.204;2023-03-14T02:36:31;9.70;99.90
7143;DHT22;3613;48.902;9.204;2023-03-14T02:41:34;9.70;99.90
7143;DHT22;3613;48.902;9.204;2023-03-14T02:43:59;9.70;99.90
7143;DHT22;3613;48.902;9.204;2023-03-14T02:46:25;9.70;99.90
7143;DHT22;3613;48.902;9.204;2023-03-14T02:49:20;9.70;99.90
7143;DHT22;3613;48.902;9.204;2023-03-14T02:51:46;9.70;99.90
7143;DHT22;3613;48.902;9.204;2023-03-14T02:54:12;9.80;99.90
7143;DHT22;3613;48.902;9.204;2023-03-14T02:56:38;9.80;99.90
7143;DHT22;3613;48.902;9.204;2023-03-14T02:59:06;9.80;99.90
7143;DHT22;3613;48.902;9.204;2023-03-14T03:01:34;9.70;99.90
7143;DHT22;3613;48.902;9.204;2023-03-14T03:04:00;9.70;99.90
7143;DHT22;3613;48.902;9.204;2023-03-14T03:06:28;9.80;99.90
7143;DHT22;3613;48.902;9.204;2023-03-14T03:08:54;9.80;99.90
7143;DHT22;3613;48.902;9.204;2023-03-14T03:11:20;9.80;99.90
7143;DHT22;3613;48.902;9.204;2023-03-14T03:13:48;9.90;99.90
7143;DHT22;3613;48.902;9.204;2023-03-14T03:16:17;9.80;99.90
7143;DHT22;3613;48.902;9.204;2023-03-14T03:18:45;9.80;99.90
7143;DHT22;3613;48.902;9.204;2023-03-14T03:21:11;9.80;99.90
7143;DHT22;3613;48.902;9.204;2023-03-14T03:23:41;9.80;99.90
7143;DHT22;3613;48.902;9.204;2023-03-14T03:26:09;9.70;99.90
7143;DHT22;3613;48.902;9.204;2023-03-14T03:28:37;9.70;99.90
7143;DHT22;3613;48.902;9.204;2023-03-14T03:31:09;9.70;99.90
7143;DHT22;3613;48.902;9.204;2023-03-14T03:33:36;9.80;99.90
7143;DHT22;3613;48.902;9.204;2023-03-14T03:36:02;9.80;99.90
7143;DHT22;3613;48.902;9.204;2023-03-14T03:38:27;9.80;99.90
7143;DHT22;3613;48.902;9.204;2023-03-14T03:40:55;9.80;99.90
7143;DHT22;3613;48.902;9.204;2023-03-14T03:43:21;9.80;99.90
7143;DHT22;3613;48.902;9.204;2023-03-14T03:45:46;9.80;99.90
7143;DHT22;3613;48.902;9.204;2023-03-14T03:48:12;9.70;99.90
7143;DHT22;3613;48.902;9.204;2023-03-14T03:50:49;10.00;99.90
7143;DHT22;3613;48.902;9.204;2023-03-14T03:53:15;9.70;99.90
7143;DHT22;3613;48.902;9.204;2023-03-14T03:55:41;9.70;99.90
7143;DHT22;3613;48.902;9.204;2023-03-14T03:58:07;9.70;99.90
7143;DHT22;3613;48.902;9.204;2023-03-14T04:00:35;9.60;99.90
7143;DHT22;3613;48.902;9.204;2023-03-14T04:03:01;9.50;99.90
7143;DHT22;3613;48.902;9.204;2023-03-14T04:05:27;9.60;99.90
7143;DHT22;3613;48.902;9.204;2023-03-14T04:07:54;9.50;99.90
7143;DHT22;3613;48.902;9.204;2023-03-14T04:10:20;9.50;99.90
7143;DHT22;3613;48.902;9.204;2023-03-14T04:12:46;9.50;99.90
7143;DHT22;3613;48.902;9.204;2023-03-14T04:15:14;9.50;99.90
7143;DHT22;3613;48.902;9.204;2023-03-14T04:17:39;9.50;99.90
7143;DHT22;3613;48.902;9.204;2023-03-14T04:20:07;9.50;99.90
7143;DHT22;3613;48.902;9.204;2023-03-14T04:22:36;9.50;99.90
7143;DHT22;3613;48.902;9.204;2023-03-14T04:25:05;9.60;99.90
7143;DHT22;3613;48.902;9.204;2023-03-14T04:27:31;9.50;99.90
7143;DHT22;3613;48.902;9.204;2023-03-14T04:29:59;9.50;99.90
7143;DHT22;3613;48.902;9.204;2023-03-14T04:32:27;9.50;99.90
7143;DHT22;3613;48.902;9.204;2023-03-14T04:34:52;9.50;99.90
7143;DHT22;3613;48.902;9.204;2023-03-14T04:37:23;9.40;99.90
7143;DHT22;3613;48.902;9.204;2023-03-14T04:39:48;9.50;99.90
7143;DHT22;3613;48.902;9.204;2023-03-14T04:42:14;9.50;99.90
7143;DHT22;3613;48.902;9.204;2023-03-14T04:44:39;9.50;99.90
7143;DHT22;3613;48.902;9.204;2023-03-14T04:47:05;9.40;99.90
7143;DHT22;3613;48.902;9.204;2023-03-14T04:49:31;9.40;99.90
7143;DHT22;3613;48.902;9.204;2023-03-14T04:51:56;9.40;99.90
7143;DHT22;3613;48.902;9.204;2023-03-14T04:54:22;9.40;99.90
7143;DHT22;3613;48.902;9.204;2023-03-14T04:56:50;9.50;99.90
7143;DHT22;3613;48.902;9.204;2023-03-14T04:59:18;9.40;99.90
7143;DHT22;3613;48.902;9.204;2023-03-14T05:01:43;9.50;99.90
7143;DHT22;3613;48.902;9.204;2023-03-14T05:04:11;9.40;99.90
7143;DHT22;3613;48.902;9.204;2023-03-14T05:06:37;9.50;99.90
7143;DHT22;3613;48.902;9.204;2023-03-14T05:09:02;9.30;99.90
7143;DHT22;3613;48.902;9.204;2023-03-14T05:11:30;9.30;99.90
7143;DHT22;3613;48.902;9.204;2023-03-14T05:13:58;9.30;99.90
7143;DHT22;3613;48.902;9.204;2023-03-14T05:16:28;9.30;99.90
7143;DHT22;3613;48.902;9.204;2023-03-14T05:18:57;9.30;99.90
7143;DHT22;3613;48.902;9.204;2023-03-14T05:21:22;9.30;99.90
7143;DHT22;3613;48.902;9.204;2023-03-14T05:23:48;9.30;99.90
7143;DHT22;3613;48.902;9.204;2023-03-14T05:26:13;9.20;99.90
7143;DHT22;3613;48.902;9.204;2023-03-14T05:28:39;9.20;99.90
7143;DHT22;3613;48.902;9.204;2023-03-14T05:31:08;9.30;99.90
7143;DHT22;3613;48.902;9.204;2023-03-14T05:33:34;9.10;99.90
7143;DHT22;3613;48.902;9.204;2023-03-14T05:35:59;9.10;99.90
7143;DHT22;3613;48.902;9.204;2023-03-14T05:38:30;9.20;99.90
7143;DHT22;3613;48.902;9.204;2023-03-14T05:40:55;9.20;99.90
7143;DHT22;3613;48.902;9.204;2023-03-14T05:43:21;9.10;99.90
7143;DHT22;3613;48.902;9.204;2023-03-14T05:45:49;9.30;99.90
7143;DHT22;3613;48.902;9.204;2023-03-14T05:48:15;9.00;99.90
7143;DHT22;3613;48.902;9.204;2023-03-14T05:50:44;9.00;99.90
7143;DHT22;3613;48.902;9.204;2023-03-14T05:53:10;9.00;99.90
7143;DHT22;3613;48.902;9.204;2023-03-14T05:55:35;9.10;99.90
7143;DHT22;3613;48.902;9.204;2023-03-14T05:58:01;9.10;99.90
7143;DHT22;3613;48.902;9.204;2023-03-14T06:00:26;9.20;99.90
7143;DHT22;3613;48.902;9.204;2023-03-14T06:02:52;9.20;99.90
7143;DHT22;3613;48.902;9.204;2023-03-14T06:05:20;9.20;99.90
7143;DHT22;3613;48.902;9.204;2023-03-14T06:07:45;9.30;99.90
7143;DHT22;3613;48.902;9.204;2023-03-14T06:10:11;9.30;99.90
7143;DHT22;3613;48.902;9.204;2023-03-14T06:12:37;9.30;99.90
7143;DHT22;3613;48.902;9.204;2023-03-14T06:15:02;9.30;99.90
7143;DHT22;3613;48.902;9.204;2023-03-14T06:17:28;9.30;99.90
7143;DHT22;3613;48.902;9.204;2023-03-14T06:19:54;9.30;99.90
7143;DHT22;3613;48.902;9.204;2023-03-14T06:22:22;9.40;99.90
7143;DHT22;3613;48.902;9.204;2023-03-14T06:24:47;9.40;99.90
7143;DHT22;3613;48.902;9.204;2023-03-14T06:27:13;9.50;99.90
7143;DHT22;3613;48.902;9.204;2023-03-14T06:29:39;9.60;99.90
7143;DHT22;3613;48.902;9.204;2023-03-14T06:32:06;9.70;99.90
7143;DHT22;3613;48.902;9.204;2023-03-14T06:34:32;9.80;99.90
7143;DHT22;3613;48.902;9.204;2023-03-14T06:37:00;9.70;99.90
7143;DHT22;3613;48.902;9.204;2023-03-14T06:39:28;9.70;99.90
7143;DHT22;3613;48.902;9.204;2023-03-14T06:41:55;9.80;99.90
7143;DHT22;3613;48.902;9.204;2023-03-14T06:44:23;9.80;99.90
7143;DHT22;3613;48.902;9.204;2023-03-14T06:46:49;9.90;99.90
7143;DHT22;3613;48.902;9.204;2023-03-14T06:49:15;10.00;99.90
7143;DHT22;3613;48.902;9.204;2023-03-14T06:51:40;10.00;99.90
7143;DHT22;3613;48.902;9.204;2023-03-14T06:54:06;10.10;99.90
7143;DHT22;3613;48.902;9.204;2023-03-14T06:56:34;11.20;99.90
7143;DHT22;3613;48.902;9.204;2023-03-14T06:59:00;12.40;99.90
7143;DHT22;3613;48.902;9.204;2023-03-14T07:01:29;13.80;99.90
7143;DHT22;3613;48.902;9.204;2023-03-14T07:03:55;14.80;99.90
7143;DHT22;3613;48.902;9.204;2023-03-14T07:06:24;15.10;99.90
7143;DHT22;3613;48.902;9.204;2023-03-14T07:08:50;16.00;99.90
7143;DHT22;3613;48.902;9.204;2023-03-14T07:11:16;16.30;99.90
7143;DHT22;3613;48.902;9.204;2023-03-14T07:13:42;17.00;99.90
7143;DHT22;3613;48.902;9.204;2023-03-14T07:16:10;17.80;99.90
7143;DHT22;3613;48.902;9.204;2023-03-14T07:18:38;18.50;99.90
7143;DHT22;3613;48.902;9.204;2023-03-14T07:21:06;18.90;99.90
7143;DHT22;3613;48.902;9.204;2023-03-14T07:23:31;18.40;99.90
7143;DHT22;3613;48.902;9.204;2023-03-14T07:25:59;18.00;99.90
7143;DHT22;3613;48.902;9.204;2023-03-14T07:28:25;16.70;99.90
7143;DHT22;3613;48.902;9.204;2023-03-14T07:30:52;15.80;99.90
7143;DHT22;3613;48.902;9.204;2023-03-14T07:33:18;15.50;99.90
7143;DHT22;3613;48.902;9.204;2023-03-14T07:35:44;15.40;99.90
7143;DHT22;3613;48.902;9.204;2023-03-14T07:38:12;15.30;99.90
7143;DHT22;3613;48.902;9.204;2023-03-14T07:40:37;16.40;99.90
7143;DHT22;3613;48.902;9.204;2023-03-14T07:43:03;18.20;99.90
7143;DHT22;3613;48.902;9.204;2023-03-14T07:45:28;19.80;99.90
7143;DHT22;3613;48.902;9.204;2023-03-14T07:47:59;20.70;99.90
7143;DHT22;3613;48.902;9.204;2023-03-14T07:50:27;20.30;99.90
7143;DHT22;3613;48.902;9.204;2023-03-14T07:52:54;20.20;99.90
7143;DHT22;3613;48.902;9.204;2023-03-14T07:55:20;21.10;97.30
7143;DHT22;3613;48.902;9.204;2023-03-14T07:57:46;21.60;95.10
7143;DHT22;3613;48.902;9.204;2023-03-14T08:00:12;21.90;93.10
7143;DHT22;3613;48.902;9.204;2023-03-14T08:02:42;22.30;91.80
7143;DHT22;3613;48.902;9.204;2023-03-14T08:05:10;23.00;90.90
7143;DHT22;3613;48.902;9.204;2023-03-14T08:07:36;23.50;85.00
7143;DHT22;3613;48.902;9.204;2023-03-14T08:10:02;23.50;80.40
7143;DHT22;3613;48.902;9.204;2023-03-14T08:12:29;23.60;80.50
7143;DHT22;3613;48.902;9.204;2023-03-14T08:14:55;24.00;76.50
7143;DHT22;3613;48.902;9.204;2023-03-14T08:17:21;24.50;74.70
7143;DHT22;3613;48.902;9.204;2023-03-14T08:19:46;24.10;72.00
7143;DHT22;3613;48.902;9.204;2023-03-14T08:22:12;24.00;72.60
7143;DHT22;3613;48.902;9.204;2023-03-14T08:24:38;24.30;71.50
7143;DHT22;3613;48.902;9.204;2023-03-14T08:27:06;24.20;68.50
7143;DHT22;3613;48.902;9.204;2023-03-14T08:29:32;23.80;68.80
7143;DHT22;3613;48.902;9.204;2023-03-14T08:31:57;24.10;68.10
7143;DHT22;3613;48.902;9.204;2023-03-14T08:34:23;22.70;68.70
7143;DHT22;3613;48.902;9.204;2023-03-14T08:36:48;21.20;73.00
7143;DHT22;3613;48.902;9.204;2023-03-14T08:39:16;19.80;78.10
7143;DHT22;3613;48.902;9.204;2023-03-14T08:41:44;18.70;83.10
7143;DHT22;3613;48.902;9.204;2023-03-14T08:44:10;18.70;88.90
7143;DHT22;3613;48.902;9.204;2023-03-14T08:46:39;18.10;90.40
7143;DHT22;3613;48.902;9.204;2023-03-14T08:49:05;17.90;92.50
7143;DHT22;3613;48.902;9.204;2023-03-14T08:51:30;17.60;93.30
7143;DHT22;3613;48.902;9.204;2023-03-14T08:53:56;17.20;94.80
7143;DHT22;3613;48.902;9.204;2023-03-14T08:56:24;17.20;96.10
7143;DHT22;3613;48.902;9.204;2023-03-14T08:58:52;17.40;97.70
7143;DHT22;3613;48.902;9.204;2023-03-14T09:01:19;17.70;96.00
7143;DHT22;3613;48.902;9.204;2023-03-14T09:03:47;17.90;96.10
7143;DHT22;3613;48.902;9.204;2023-03-14T09:06:15;17.20;98.20
7143;DHT22;3613;48.902;9.204;2023-03-14T09:08:43;16.60;99.90
7143;DHT22;3613;48.902;9.204;2023-03-14T09:11:12;16.00;99.90
7143;DHT22;3613;48.902;9.204;2023-03-14T09:13:38;15.30;99.90
7143;DHT22;3613;48.902;9.204;2023-03-14T09:16:07;15.10;99.90
7143;DHT22;3613;48.902;9.204;2023-03-14T09:18:32;15.00;99.90
7143;DHT22;3613;48.902;9.204;2023-03-14T09:21:01;15.00;99.90
7143;DHT22;3613;48.902;9.204;2023-03-14T09:23:29;14.90;99.90
7143;DHT22;3613;48.902;9.204;2023-03-14T09:25:55;14.70;99.90
7143;DHT22;3613;48.902;9.204;2023-03-14T09:28:21;14.70;99.90
7143;DHT22;3613;48.902;9.204;2023-03-14T09:30:47;14.70;99.90
7143;DHT22;3613;48.902;9.204;2023-03-14T09:33:13;14.70;99.90
7143;DHT22;3613;48.902;9.204;2023-03-14T09:35:38;14.90;99.90
7143;DHT22;3613;48.902;9.204;2023-03-14T09:38:06;14.50;99.90
7143;DHT22;3613;48.902;9.204;2023-03-14T09:40:37;14.10;99.90
7143;DHT22;3613;48.902;9.204;2023-03-14T09:43:05;14.10;99.90
7143;DHT22;3613;48.902;9.204;2023-03-14T09:45:39;13.90;99.90
7143;DHT22;3613;48.902;9.204;2023-03-14T09:48:15;14.00;99.90
7143;DHT22;3613;48.902;9.204;2023-03-14T09:50:48;14.10;99.90
7143;DHT22;3613;48.902;9.204;2023-03-14T09:53:17;14.10;99.90
7143;DHT22;3613;48.902;9.204;2023-03-14T09:55:45;14.10;99.90
7143;DHT22;3613;48.902;9.204;2023-03-14T09:58:14;14.30;99.90
7143;DHT22;3613;48.902;9.204;2023-03-14T10:00:44;14.20;99.90
7143;DHT22;3613;48.902;9.204;2023-03-14T10:05:40;14.40;99.90
7143;DHT22;3613;48.902;9.204;2023-03-14T10:08:10;14.60;99.90
7143;DHT22;3613;48.902;9.204;2023-03-14T10:10:38;14.80;99.90
7143;DHT22;3613;48.902;9.204;2023-03-14T10:13:20;15.30;99.90
7143;DHT22;3613;48.902;9.204;2023-03-14T10:15:54;15.90;99.90
7143;DHT22;3613;48.902;9.204;2023-03-14T10:18:20;15.90;99.90
7143;DHT22;3613;48.902;9.204;2023-03-14T10:20:48;16.30;99.90
7143;DHT22;3613;48.902;9.204;2023-03-14T10:25:44;16.50;99.90
7143;DHT22;3613;48.902;9.204;2023-03-14T10:30:52;17.00;99.90
7143;DHT22;3613;48.902;9.204;2023-03-14T10:33:39;17.50;99.90
7143;DHT22;3613;48.902;9.204;2023-03-14T10:38:45;16.80;99.90
7143;DHT22;3613;48.902;9.204;2023-03-14T10:41:20;16.90;99.90
7143;DHT22;3613;48.902;9.204;2023-03-14T10:43:51;16.80;99.90
7143;DHT22;3613;48.902;9.204;2023-03-14T10:46:20;16.50;99.90
7143;DHT22;3613;48.902;9.204;2023-03-14T10:48:46;16.40;99.90
7143;DHT22;3613;48.902;9.204;2023-03-14T10:53:47;16.10;99.90
7143;DHT22;3613;48.902;9.204;2023-03-14T10:56:16;15.80;99.90
7143;DHT22;3613;48.902;9.204;2023-03-14T10:58:46;15.80;99.90
7143;DHT22;3613;48.902;9.204;2023-03-14T11:01:24;15.70;99.90
7143;DHT22;3613;48.902;9.204;2023-03-14T11:03:57;15.50;99.90
7143;DHT22;3613;48.902;9.204;2023-03-14T11:09:44;14.80;99.90
7143;DHT22;3613;48.902;9.204;2023-03-14T11:18:30;13.80;99.90
7143;DHT22;3613;48.902;9.204;2023-03-14T11:21:29;13.40;99.90
7143;DHT22;3613;48.902;9.204;2023-03-14T11:26:36;13.10;99.90
7143;DHT22;3613;48.902;9.204;2023-03-14T11:32:15;13.00;99.90
7143;DHT22;3613;48.902;9.204;2023-03-14T11:34:53;13.10;99.90
7143;DHT22;3613;48.902;9.204;2023-03-14T11:37:34;13.10;99.90
7143;DHT22;3613;48.902;9.204;2023-03-14T11:42:45;12.70;99.90
7143;DHT22;3613;48.902;9.204;2023-03-14T11:45:35;12.60;99.90
7143;DHT22;3613;48.902;9.204;2023-03-14T11:50:47;12.70;99.90
7143;DHT22;3613;48.902;9.204;2023-03-14T11:53:39;12.90;99.90
7143;DHT22;3613;48.902;9.204;2023-03-14T11:56:16;13.10;99.90
7143;DHT22;3613;48.902;9.204;2023-03-14T11:58:59;13.10;99.90
7143;DHT22;3613;48.902;9.204;2023-03-14T12:02:05;12.90;99.90
7143;DHT22;3613;48.902;9.204;2023-03-14T12:04:47;12.60;99.90
7143;DHT22;3613;48.902;9.204;2023-03-14T12:07:19;12.40;99.90
7143;DHT22;3613;48.902;9.204;2023-03-14T12:09:47;12.10;99.90
7143;DHT22;3613;48.902;9.204;2023-03-14T12:12:19;11.90;99.90
7143;DHT22;3613;48.902;9.204;2023-03-14T12:15:00;11.70;99.90
7143;DHT22;3613;48.902;9.204;2023-03-14T12:17:41;11.70;99.90
7143;DHT22;3613;48.902;9.204;2023-03-14T12:23:06;12.00;99.90
7143;DHT22;3613;48.902;9.204;2023-03-14T12:25:36;12.00;99.90
7143;DHT22;3613;48.902;9.204;2023-03-14T12:28:18;12.10;99.90
7143;DHT22;3613;48.902;9.204;2023-03-14T12:30:47;12.10;99.90
7143;DHT22;3613;48.902;9.204;2023-03-14T12:35:45;11.90;99.90
7143;DHT22;3613;48.902;9.204;2023-03-14T12:38:15;11.80;99.90
7143;DHT22;3613;48.902;9.204;2023-03-14T12:41:03;11.50;99.90
7143;DHT22;3613;48.902;9.204;2023-03-14T12:43:34;11.30;99.90
7143;DHT22;3613;48.902;9.204;2023-03-14T12:49:03;10.40;99.90
7143;DHT22;3613;48.902;9.204;2023-03-14T12:51:37;10.10;99.90
7143;DHT22;3613;48.902;9.204;2023-03-14T12:59:56;10.20;99.90
7143;DHT22;3613;48.902;9.204;2023-03-14T13:02:38;11.40;99.90
7143;DHT22;3613;48.902;9.204;2023-03-14T13:05:12;12.70;99.90
7143;DHT22;3613;48.902;9.204;2023-03-14T13:12:48;14.40;99.90
7143;DHT22;3613;48.902;9.204;2023-03-14T13:20:37;14.60;99.90
7143;DHT22;3613;48.902;9.204;2023-03-14T13:23:04;14.80;99.90
7143;DHT22;3613;48.902;9.204;2023-03-14T13:25:38;13.90;99.90
7143;DHT22;3613;48.902;9.204;2023-03-14T13:28:03;13.10;99.90
7143;DHT22;3613;48.902;9.204;2023-03-14T13:30:39;12.30;99.90
7143;DHT22;3613;48.902;9.204;2023-03-14T13:33:13;12.30;99.90
7143;DHT22;3613;48.902;9.204;2023-03-14T13:35:47;12.20;99.90
7143;DHT22;3613;48.902;9.204;2023-03-14T13:38:20;11.90;99.90
7143;DHT22;3613;48.902;9.204;2023-03-14T13:40:49;12.00;99.90
7143;DHT22;3613;48.902;9.204;2023-03-14T13:43:19;12.10;99.90
7143;DHT22;3613;48.902;9.204;2023-03-14T13:45:52;12.30;99.90
7143;DHT22;3613;48.902;9.204;2023-03-14T13:48:19;12.00;99.80
7143;DHT22;3613;48.902;9.204;2023-03-14T13:50:54;12.50;98.20
7143;DHT22;3613;48.902;9.204;2023-03-14T13:53:23;11.50;99.10
7143;DHT22;3613;48.902;9.204;2023-03-14T13:55:49;11.60;99.90
7143;DHT22;3613;48.902;9.204;2023-03-14T13:58:27;11.70;99.40
7143;DHT22;3613;48.902;9.204;2023-03-14T14:03:23;11.70;99.10
7143;DHT22;3613;48.902;9.204;2023-03-14T14:05:49;11.70;98.90
7143;DHT22;3613;48.902;9.204;2023-03-14T14:08:15;11.40;99.00
7143;DHT22;3613;48.902;9.204;2023-03-14T14:10:43;11.10;99.90
7143;DHT22;3613;48.902;9.204;2023-03-14T14:13:15;11.10;99.90
7143;DHT22;3613;48.902;9.204;2023-03-14T14:15:46;10.90;99.90
7143;DHT22;3613;48.902;9.204;2023-03-14T14:18:16;10.70;98.30
7143;DHT22;3613;48.902;9.204;2023-03-14T14:20:45;10.50;97.80
7143;DHT22;3613;48.902;9.204;2023-03-14T14:23:14;10.40;98.20
7143;DHT22;3613;48.902;9.204;2023-03-14T14:25:40;10.30;98.00
7143;DHT22;3613;48.902;9.204;2023-03-14T14:30:46;10.40;96.70
7143;DHT22;3613;48.902;9.204;2023-03-14T14:33:26;10.40;95.20
7143;DHT22;3613;48.902;9.204;2023-03-14T14:35:59;10.40;96.70
7143;DHT22;3613;48.902;9.204;2023-03-14T14:38:26;10.50;96.70
7143;DHT22;3613;48.902;9.204;2023-03-14T14:41:00;10.50;96.80
7143;DHT22;3613;48.902;9.204;2023-03-14T14:43:28;10.70;96.20
7143;DHT22;3613;48.902;9.204;2023-03-14T14:45:57;10.40;96.60
7143;DHT22;3613;48.902;9.204;2023-03-14T14:48:26;10.40;96.70
7143;DHT22;3613;48.902;9.204;2023-03-14T14:50:58;10.40;96.50
7143;DHT22;3613;48.902;9.204;2023-03-14T14:53:42;10.30;96.50
7143;DHT22;3613;48.902;9.204;2023-03-14T14:56:26;10.40;97.30
7143;DHT22;3613;48.902;9.204;2023-03-14T14:58:58;10.50;98.10
7143;DHT22;3613;48.902;9.204;2023-03-14T15:01:25;10.60;97.20
7143;DHT22;3613;48.902;9.204;2023-03-14T15:03:53;10.70;96.40
7143;DHT22;3613;48.902;9.204;2023-03-14T15:06:19;10.60;96.10
7143;DHT22;3613;48.902;9.204;2023-03-14T15:08:47;10.70;95.30
7143;DHT22;3613;48.902;9.204;2023-03-14T15:11:23;10.60;94.50
7143;DHT22;3613;48.902;9.204;2023-03-14T15:13:50;10.60;94.90
7143;DHT22;3613;48.902;9.204;2023-03-14T15:16:21;10.70;94.90
7143;DHT22;3613;48.902;9.204;2023-03-14T15:18:58;10.80;95.10
7143;DHT22;3613;48.902;9.204;2023-03-14T15:21:28;11.00;93.90
7143;DHT22;3613;48.902;9.204;2023-03-14T15:23:54;11.10;92.50
7143;DHT22;3613;48.902;9.204;2023-03-14T15:26:22;11.10;92.30
7143;DHT22;3613;48.902;9.204;2023-03-14T15:28:48;11.10;92.80
7143;DHT22;3613;48.902;9.204;2023-03-14T15:31:15;10.80;93.20
7143;DHT22;3613;48.902;9.204;2023-03-14T15:33:44;10.80;93.70
7143;DHT22;3613;48.902;9.204;2023-03-14T15:36:29;10.70;93.20
7143;DHT22;3613;48.902;9.204;2023-03-14T15:38:56;10.60;94.20
7143;DHT22;3613;48.902;9.204;2023-03-14T15:41:22;10.40;94.80
7143;DHT22;3613;48.902;9.204;2023-03-14T15:43:48;10.50;95.10
7143;DHT22;3613;48.902;9.204;2023-03-14T15:46:14;10.30;95.90
7143;DHT22;3613;48.902;9.204;2023-03-14T15:48:46;10.30;95.90
7143;DHT22;3613;48.902;9.204;2023-03-14T15:51:12;10.50;97.10
7143;DHT22;3613;48.902;9.204;2023-03-14T15:53:40;10.10;96.70
7143;DHT22;3613;48.902;9.204;2023-03-14T15:56:11;10.00;97.20
7143;DHT22;3613;48.902;9.204;2023-03-14T15:58:37;9.90;99.90
7143;DHT22;3613;48.902;9.204;2023-03-14T16:01:06;9.90;99.90
7143;DHT22;3613;48.902;9.204;2023-03-14T16:03:34;9.50;99.90
7143;DHT22;3613;48.902;9.204;2023-03-14T16:06:00;9.40;99.90
7143;DHT22;3613;48.902;9.204;2023-03-14T16:08:26;9.40;99.90
7143;DHT22;3613;48.902;9.204;2023-03-14T16:10:54;9.40;99.90
7143;DHT22;3613;48.902;9.204;2023-03-14T16:13:20;9.50;99.90
7143;DHT22;3613;48.902;9.204;2023-03-14T16:16:03;9.30;99.90
7143;DHT22;3613;48.902;9.204;2023-03-14T16:18:32;9.10;99.90
7143;DHT22;3613;48.902;9.204;2023-03-14T16:21:00;9.00;99.90
7143;DHT22;3613;48.902;9.204;2023-03-14T16:23:26;8.90;99.90
7143;DHT22;3613;48.902;9.204;2023-03-14T16:25:55;8.80;99.90
7143;DHT22;3613;48.902;9.204;2023-03-14T16:28:24;8.80;99.90
7143;DHT22;3613;48.902;9.204;2023-03-14T16:30:51;8.80;99.90
7143;DHT22;3613;48.902;9.204;2023-03-14T16:33:17;8.70;99.90
7143;DHT22;3613;48.902;9.204;2023-03-14T16:35:53;8.90;99.90
7143;DHT22;3613;48.902;9.204;2023-03-14T16:38:19;8.80;99.90
7143;DHT22;3613;48.902;9.204;2023-03-14T16:41:01;9.00;99.90
7143;DHT22;3613;48.902;9.204;2023-03-14T16:43:28;9.00;99.90
7143;DHT22;3613;48.902;9.204;2023-03-14T16:45:56;9.00;99.90
7143;DHT22;3613;48.902;9.204;2023-03-14T16:48:22;8.90;99.90
7143;DHT22;3613;48.902;9.204;2023-03-14T16:50:52;8.80;99.90
7143;DHT22;3613;48.902;9.204;2023-03-14T16:53:18;8.60;99.90
7143;DHT22;3613;48.902;9.204;2023-03-14T16:55:46;8.30;99.90
7143;DHT22;3613;48.902;9.204;2023-03-14T16:58:12;7.90;99.90
7143;DHT22;3613;48.902;9.204;2023-03-14T17:00:38;7.70;99.90
7143;DHT22;3613;48.902;9.204;2023-03-14T17:03:06;7.60;99.90
7143;DHT22;3613;48.902;9.204;2023-03-14T17:05:34;7.60;99.90
7143;DHT22;3613;48.902;9.204;2023-03-14T17:08:02;7.60;99.90
7143;DHT22;3613;48.902;9.204;2023-03-14T17:10:27;7.70;99.90
7143;DHT22;3613;48.902;9.204;2023-03-14T17:12:53;7.50;99.90
7143;DHT22;3613;48.902;9.204;2023-03-14T17:15:19;7.40;99.90
7143;DHT22;3613;48.902;9.204;2023-03-14T17:17:44;7.20;99.90
7143;DHT22;3613;48.902;9.204;2023-03-14T17:20:10;7.10;99.90
7143;DHT22;3613;48.902;9.204;2023-03-14T17:22:36;7.00;99.90
7143;DHT22;3613;48.902;9.204;2023-03-14T17:25:02;6.90;99.90
7143;DHT22;3613;48.902;9.204;2023-03-14T17:27:28;6.90;99.90
7143;DHT22;3613;48.902;9.204;2023-03-14T17:29:56;6.80;99.90